createdAt,value
2023-03-29T00:00:28.027Z,100978.5703125
2023-03-29T00:01:35.238Z,100969.33203125
2023-03-29T00:02:27.986Z,100966.0703125
2023-03-29T00:03:28.072Z,100956.66796875
2023-03-29T00:04:28.356Z,100950.8515625
2023-03-29T00:05:27.947Z,100947.04296875
2023-03-29T00:06:27.927Z,100944.078125
2023-03-29T00:07:28.071Z,100937.7890625
2023-03-29T00:08:27.949Z,100935.5078125
2023-03-29T00:09:28.345Z,100931.53515625
2023-03-29T00:10:30.262Z,100930.10546875
2023-03-29T00:11:27.924Z,100925.421875
2023-03-29T00:12:27.925Z,100922.71484375
2023-03-29T00:13:27.933Z,100927.13671875
2023-03-29T00:14:28.339Z,100927.73828125
2023-03-29T00:15:27.921Z,100928.27734375
2023-03-29T00:16:28.365Z,100926.3203125
2023-03-29T00:17:27.957Z,100925.78125
2023-03-29T00:18:27.952Z,100926.20703125
2023-03-29T00:19:28.338Z,100922.91015625
2023-03-29T00:20:28.001Z,100922.97265625
2023-03-29T00:21:30.379Z,100921.16796875
2023-03-29T00:22:27.943Z,100923.78125
2023-03-29T00:23:27.926Z,100922.58984375
2023-03-29T00:24:28.348Z,100926.05859375
2023-03-29T00:25:27.948Z,100933.1640625
2023-03-29T00:26:27.923Z,100936.0703125
2023-03-29T00:27:27.929Z,100933.76953125
2023-03-29T00:28:28.038Z,100930.41015625
2023-03-29T00:29:28.332Z,100928.015625
2023-03-29T00:30:27.940Z,100925.5859375
2023-03-29T00:31:28.362Z,100925.703125
2023-03-29T00:32:30.329Z,100926.6796875
2023-03-29T00:33:28.058Z,100923.1953125
2023-03-29T00:34:28.364Z,100917.89453125
2023-03-29T00:35:27.977Z,100919.484375
2023-03-29T00:36:27.991Z,100918.8359375
2023-03-29T00:37:28.007Z,100919.546875
2023-03-29T00:38:27.946Z,100918.59765625
2023-03-29T00:39:28.350Z,100915.078125
2023-03-29T00:40:27.945Z,100917.3046875
2023-03-29T00:41:27.903Z,100916.55078125
2023-03-29T00:42:27.927Z,100917.99609375
2023-03-29T00:43:30.300Z,100917.99609375
2023-03-29T00:44:28.333Z,100912.34765625
2023-03-29T00:45:27.947Z,100909.0390625
2023-03-29T00:46:28.390Z,100911.50390625
2023-03-29T00:47:28.052Z,100912.48046875
2023-03-29T00:48:27.954Z,100909.92578125
2023-03-29T00:49:28.338Z,100907.09375
2023-03-29T00:50:28.005Z,100909.34765625
2023-03-29T00:51:27.944Z,100910.72265625
2023-03-29T00:52:28.040Z,100907.8828125
2023-03-29T00:53:27.931Z,100911.30078125
2023-03-29T00:54:32.833Z,100908.10546875
2023-03-29T00:55:27.960Z,100904.49609375
2023-03-29T00:56:27.924Z,100907.046875
2023-03-29T00:57:27.994Z,100905.00390625
2023-03-29T00:58:28.070Z,100906.96875
2023-03-29T00:59:28.356Z,100911.46875
2023-03-29T01:00:27.942Z,100911.19921875
2023-03-29T01:01:28.492Z,100914.53515625
2023-03-29T01:02:28.073Z,100912.95703125
2023-03-29T01:03:28.012Z,100912.01953125
2023-03-29T01:04:28.343Z,100912.1953125
2023-03-29T01:05:30.314Z,100908.7109375
2023-03-29T01:06:28.096Z,100908.6875
2023-03-29T01:07:28.023Z,100907.16015625
2023-03-29T01:08:28.085Z,100904.92578125
2023-03-29T01:09:28.348Z,100902.66015625
2023-03-29T01:10:27.941Z,100901.16796875
2023-03-29T01:11:28.301Z,100896.6640625
2023-03-29T01:12:27.944Z,100893.8828125
2023-03-29T01:13:27.929Z,100884.69140625
2023-03-29T01:14:28.337Z,100876.84765625
2023-03-29T01:15:27.940Z,100875.27734375
2023-03-29T01:16:32.882Z,100874.58984375
2023-03-29T01:17:28.104Z,100878.66796875
2023-03-29T01:18:27.949Z,100881.7265625
2023-03-29T01:19:28.320Z,100882.35546875
2023-03-29T01:20:28.081Z,100882.22265625
2023-03-29T01:21:27.940Z,100885.83203125
2023-03-29T01:22:27.950Z,100884.73046875
2023-03-29T01:23:28.017Z,100877.80859375
2023-03-29T01:24:29.172Z,100875.37890625
2023-03-29T01:25:28.080Z,100877.578125
2023-03-29T01:26:27.940Z,100877.23046875
2023-03-29T01:27:30.326Z,100878.81640625
2023-03-29T01:28:27.899Z,100880.3203125
2023-03-29T01:29:28.347Z,100876.13671875
2023-03-29T01:30:27.897Z,100871.0859375
2023-03-29T01:31:28.365Z,100866.88671875
2023-03-29T01:32:28.484Z,100861.203125
2023-03-29T01:33:27.941Z,100859.9921875
2023-03-29T01:34:27.946Z,100862.6484375
2023-03-29T01:35:27.947Z,100858.44921875
2023-03-29T01:36:27.948Z,100859.3984375
2023-03-29T01:37:28.357Z,100860.4453125
2023-03-29T01:38:30.304Z,100854.2578125
2023-03-29T01:39:27.949Z,100853.90625
2023-03-29T01:40:28.363Z,100850.58984375
2023-03-29T01:41:27.900Z,100845.953125
2023-03-29T01:42:28.411Z,100847.0625
2023-03-29T01:43:27.963Z,100846.25390625
2023-03-29T01:44:27.933Z,100845.9296875
2023-03-29T01:45:27.944Z,100844.55859375
2023-03-29T01:46:28.053Z,100846.234375
2023-03-29T01:47:28.371Z,100848.46484375
2023-03-29T01:48:27.947Z,100845.40625
2023-03-29T01:49:30.244Z,100845.15234375
2023-03-29T01:50:27.949Z,100843.26171875
2023-03-29T01:51:27.924Z,100840.94921875
2023-03-29T01:52:28.360Z,100838.234375
2023-03-29T01:53:27.946Z,100839.22265625
2023-03-29T01:54:27.967Z,100838.84375
2023-03-29T01:55:28.378Z,100839.05078125
2023-03-29T01:56:27.919Z,100840.90234375
2023-03-29T01:57:28.376Z,100838.33203125
2023-03-29T01:58:27.923Z,100835.30078125
2023-03-29T01:59:27.962Z,100837.68359375
2023-03-29T02:00:30.391Z,100838.05859375
2023-03-29T02:01:28.005Z,100837.24609375
2023-03-29T02:02:28.492Z,100835.12890625
2023-03-29T02:03:28.093Z,100836.7265625
2023-03-29T02:04:28.025Z,100834.90625
2023-03-29T02:05:28.052Z,100837.578125
2023-03-29T02:06:27.942Z,100840.52734375
2023-03-29T02:07:28.362Z,100841.9296875
2023-03-29T02:08:27.953Z,100837.06640625
2023-03-29T02:09:27.949Z,100838.8203125
2023-03-29T02:10:28.351Z,100837.4296875
2023-03-29T02:11:30.233Z,100830.8828125
2023-03-29T02:12:28.358Z,100833.75390625
2023-03-29T02:13:27.947Z,100827.80859375
2023-03-29T02:14:27.945Z,100826.91015625
2023-03-29T02:15:27.956Z,100825.3671875
2023-03-29T02:16:27.958Z,100829.06640625
2023-03-29T02:17:28.663Z,100826.49609375
2023-03-29T02:18:27.948Z,100826.2109375
2023-03-29T02:19:28.095Z,100820.9765625
2023-03-29T02:20:27.933Z,100821.203125
2023-03-29T02:21:28.075Z,100818.90625
2023-03-29T02:22:32.803Z,100817.3515625
2023-03-29T02:23:27.973Z,100815.8984375
2023-03-29T02:24:27.941Z,100820.94140625
2023-03-29T02:25:28.341Z,100819.73828125
2023-03-29T02:26:27.922Z,100817.76171875
2023-03-29T02:27:28.343Z,100817.34765625
2023-03-29T02:28:27.971Z,100820.27734375
2023-03-29T02:29:27.936Z,100819.4375
2023-03-29T02:30:27.976Z,100816.984375
2023-03-29T02:31:28.007Z,100816.109375
2023-03-29T02:32:28.389Z,100816.2734375
2023-03-29T02:33:30.403Z,100816.57421875
2023-03-29T02:34:27.924Z,100814.92578125
2023-03-29T02:35:27.940Z,100816.3359375
2023-03-29T02:36:27.925Z,100812.7265625
2023-03-29T02:37:28.349Z,100808.515625
2023-03-29T02:38:27.957Z,100806.890625
2023-03-29T02:39:27.944Z,100804.01171875
2023-03-29T02:40:28.353Z,100805.9296875
2023-03-29T02:41:27.903Z,100809.5703125
2023-03-29T02:42:28.388Z,100805.75
2023-03-29T02:43:28.012Z,100809.29296875
2023-03-29T02:44:30.319Z,100806.86328125
2023-03-29T02:45:27.944Z,100808.20703125
2023-03-29T02:46:27.987Z,100806.13671875
2023-03-29T02:47:28.380Z,100805.953125
2023-03-29T02:48:28.037Z,100805.21484375
2023-03-29T02:49:27.928Z,100801.8984375
2023-03-29T02:50:27.949Z,100798.84375
2023-03-29T02:51:27.931Z,100797.41796875
2023-03-29T02:52:28.354Z,100795.6015625
2023-03-29T02:53:27.969Z,100800.85546875
2023-03-29T02:54:27.933Z,100798.30078125
2023-03-29T02:55:32.778Z,100794.7578125
2023-03-29T02:56:27.961Z,100793.375
2023-03-29T02:57:28.356Z,100794.390625
2023-03-29T02:58:27.944Z,100789.33203125
2023-03-29T02:59:27.948Z,100792.43359375
2023-03-29T03:00:27.958Z,100794.45703125
2023-03-29T03:01:28.131Z,100798.015625
2023-03-29T03:02:28.457Z,100795.48828125
2023-03-29T03:03:28.032Z,100794.671875
2023-03-29T03:04:27.934Z,100791.15234375
2023-03-29T03:05:27.946Z,100785.93359375
2023-03-29T03:06:30.268Z,100787.0625
2023-03-29T03:07:28.340Z,100785.21875
2023-03-29T03:08:27.947Z,100782.3984375
2023-03-29T03:09:27.946Z,100785.89453125
2023-03-29T03:10:28.367Z,100783.01953125
2023-03-29T03:11:27.914Z,100777.84765625
2023-03-29T03:12:28.348Z,100779.66796875
2023-03-29T03:13:28.023Z,100779.22265625
2023-03-29T03:14:27.981Z,100776.4375
2023-03-29T03:15:27.948Z,100777.21875
2023-03-29T03:16:28.063Z,100775.265625
2023-03-29T03:17:32.825Z,100769.94921875
2023-03-29T03:18:27.948Z,100767.61328125
2023-03-29T03:19:27.936Z,100768.3125
2023-03-29T03:20:27.959Z,100769.96484375
2023-03-29T03:21:28.098Z,100768.734375
2023-03-29T03:22:28.355Z,100769.5234375
2023-03-29T03:23:27.950Z,100768.4140625
2023-03-29T03:24:27.973Z,100768.09375
2023-03-29T03:25:28.361Z,100766.3671875
2023-03-29T03:26:27.944Z,100764.84765625
2023-03-29T03:27:28.358Z,100766.76953125
2023-03-29T03:28:30.318Z,100767.62109375
2023-03-29T03:29:28.050Z,100765.2578125
2023-03-29T03:30:28.061Z,100766.55078125
2023-03-29T03:31:27.994Z,100768.03125
2023-03-29T03:32:27.985Z,100767.45703125
2023-03-29T03:33:28.362Z,100769.40234375
2023-03-29T03:34:28.015Z,100768.0859375
2023-03-29T03:35:27.988Z,100765.76171875
2023-03-29T03:36:28.073Z,100763.12109375
2023-03-29T03:37:27.938Z,100766.51171875
2023-03-29T03:38:28.362Z,100765.05078125
2023-03-29T03:39:30.319Z,100764.4609375
2023-03-29T03:40:28.483Z,100760.78125
2023-03-29T03:41:27.905Z,100757.9765625
2023-03-29T03:42:28.010Z,100761.3203125
2023-03-29T03:43:28.326Z,100757.51953125
2023-03-29T03:44:27.962Z,100761.2734375
2023-03-29T03:45:28.007Z,100761.609375
2023-03-29T03:46:29.618Z,100760.546875
2023-03-29T03:47:27.991Z,100761.07421875
2023-03-29T03:48:28.327Z,100759.33203125
2023-03-29T03:49:27.933Z,100759.50390625
2023-03-29T03:50:30.297Z,100762.67578125
2023-03-29T03:51:27.913Z,100760.72265625
2023-03-29T03:52:27.943Z,100757.3671875
2023-03-29T03:53:28.077Z,100757.125
2023-03-29T03:54:28.054Z,100754.80078125
2023-03-29T03:55:28.369Z,100751.3515625
2023-03-29T03:56:27.945Z,100752.51953125
2023-03-29T03:57:27.944Z,100754.38671875
2023-03-29T03:58:28.346Z,100749.203125
2023-03-29T03:59:27.924Z,100753.84375
2023-03-29T04:00:27.944Z,100749.7265625
2023-03-29T04:01:30.333Z,100753.0703125
2023-03-29T04:02:28.013Z,100752.48046875
2023-03-29T04:03:28.437Z,100753.89453125
2023-03-29T04:04:27.970Z,100754.45703125
2023-03-29T04:05:28.065Z,100753.89453125
2023-03-29T04:06:27.931Z,100756.27734375
2023-03-29T04:07:27.926Z,100757.44921875
2023-03-29T04:08:28.331Z,100756.8046875
2023-03-29T04:09:27.945Z,100753.734375
2023-03-29T04:10:28.343Z,100753.7109375
2023-03-29T04:11:27.898Z,100752.90234375
2023-03-29T04:12:30.325Z,100752.625
2023-03-29T04:13:28.368Z,100748.80078125
2023-03-29T04:14:27.961Z,100752.4140625
2023-03-29T04:15:28.007Z,100748.50390625
2023-03-29T04:16:27.997Z,100750.58984375
2023-03-29T04:17:27.940Z,100747.5703125
2023-03-29T04:18:28.518Z,100746.91796875
2023-03-29T04:19:28.055Z,100746.44140625
2023-03-29T04:20:27.929Z,100747.31640625
2023-03-29T04:21:27.927Z,100746.38671875
2023-03-29T04:22:28.075Z,100745.1875
2023-03-29T04:23:32.789Z,100748.53515625
2023-03-29T04:24:27.925Z,100746.4296875
2023-03-29T04:25:28.365Z,100746.7109375
2023-03-29T04:26:27.948Z,100747.03125
2023-03-29T04:27:27.948Z,100742.8671875
2023-03-29T04:28:28.359Z,100743.34765625
2023-03-29T04:29:27.948Z,100742.2734375
2023-03-29T04:30:28.060Z,100745.7734375
2023-03-29T04:31:28.003Z,100745.9453125
2023-03-29T04:32:27.993Z,100748.39453125
2023-03-29T04:33:28.358Z,100749.28125
2023-03-29T04:34:30.265Z,100748.6796875
2023-03-29T04:35:27.949Z,100749.5078125
2023-03-29T04:36:27.912Z,100747.4921875
2023-03-29T04:37:27.927Z,100747.60546875
2023-03-29T04:38:28.379Z,100743.1640625
2023-03-29T04:39:27.934Z,100742.54296875
2023-03-29T04:40:28.344Z,100742.65234375
2023-03-29T04:41:27.899Z,100738.15234375
2023-03-29T04:42:28.084Z,100738.79296875
2023-03-29T04:43:28.345Z,100741.58203125
2023-03-29T04:44:27.932Z,100737.71484375
2023-03-29T04:45:30.329Z,100737.65234375
2023-03-29T04:46:28.014Z,100734.03125
2023-03-29T04:47:27.984Z,100737.0859375
2023-03-29T04:48:28.356Z,100739.19140625
2023-03-29T04:49:27.973Z,100737.24609375
2023-03-29T04:50:28.111Z,100741.01171875
2023-03-29T04:51:28.090Z,100736.046875
2023-03-29T04:52:27.951Z,100740.05859375
2023-03-29T04:53:28.337Z,100735.890625
2023-03-29T04:54:27.955Z,100740.40625
2023-03-29T04:55:28.400Z,100739.234375
2023-03-29T04:56:30.349Z,100739.2734375
2023-03-29T04:57:27.983Z,100736.72265625
2023-03-29T04:58:32.172Z,100734.05859375
2023-03-29T04:59:28.108Z,100736.0703125
2023-03-29T05:00:27.943Z,100737.171875
2023-03-29T05:01:27.966Z,100737.26953125
2023-03-29T05:02:28.004Z,100738.24609375
2023-03-29T05:03:28.378Z,100738.484375
2023-03-29T05:04:28.111Z,100736.66796875
2023-03-29T05:05:28.008Z,100736.81640625
2023-03-29T05:06:27.947Z,100737.12890625
2023-03-29T05:07:30.281Z,100730.87890625
2023-03-29T05:08:28.382Z,100732.828125
2023-03-29T05:09:27.943Z,100729.56640625
2023-03-29T05:10:28.364Z,100731.30078125
2023-03-29T05:11:28.337Z,100733.50390625
2023-03-29T05:12:28.071Z,100736.25
2023-03-29T05:13:28.340Z,100740.6875
2023-03-29T05:14:27.947Z,100734.4765625
2023-03-29T05:15:27.938Z,100736.6953125
2023-03-29T05:16:27.955Z,100739.65234375
2023-03-29T05:17:27.986Z,100733.48046875
2023-03-29T05:18:32.827Z,100735.609375
2023-03-29T05:19:27.936Z,100733.96484375
2023-03-29T05:20:27.964Z,100736.40234375
2023-03-29T05:21:27.943Z,100735.06640625
2023-03-29T05:22:27.954Z,100739.67578125
2023-03-29T05:23:28.355Z,100734.74609375
2023-03-29T05:24:27.945Z,100739.27734375
2023-03-29T05:25:28.357Z,100741.7734375
2023-03-29T05:26:27.936Z,100737.640625
2023-03-29T05:27:27.970Z,100737.03125
2023-03-29T05:28:28.340Z,100732.45703125
2023-03-29T05:29:30.307Z,100733.87109375
2023-03-29T05:30:27.981Z,100735.5390625
2023-03-29T05:31:27.950Z,100732.22265625
2023-03-29T05:32:27.997Z,100732.92578125
2023-03-29T05:33:28.366Z,100735.33203125
2023-03-29T05:34:27.947Z,100729.140625
2023-03-29T05:35:27.943Z,100735.19921875
2023-03-29T05:36:27.957Z,100733.15234375
2023-03-29T05:37:27.963Z,100731.91796875
2023-03-29T05:38:28.352Z,100734.80859375
2023-03-29T05:39:27.924Z,100735.30859375
2023-03-29T05:40:32.789Z,100740.04296875
2023-03-29T05:41:27.905Z,100742.15625
2023-03-29T05:42:27.931Z,100739.8515625
2023-03-29T05:43:28.371Z,100737.66015625
2023-03-29T05:44:28.083Z,100738.5859375
2023-03-29T05:45:27.992Z,100738.01953125
2023-03-29T05:46:27.952Z,100739.3671875
2023-03-29T05:47:27.974Z,100739.8046875
2023-03-29T05:48:28.350Z,100737.08984375
2023-03-29T05:49:27.940Z,100730.1484375
2023-03-29T05:50:27.943Z,100733.828125
2023-03-29T05:51:30.324Z,100730
2023-03-29T05:52:28.010Z,100726.921875
2023-03-29T05:53:28.334Z,100725.7890625
2023-03-29T05:54:27.949Z,100725.9609375
2023-03-29T05:55:28.359Z,100725.83203125
2023-03-29T05:56:27.947Z,100727.65234375
2023-03-29T05:57:28.079Z,100725.796875
2023-03-29T05:58:28.373Z,100727.15234375
2023-03-29T05:59:27.973Z,100724.57421875
2023-03-29T06:00:28.016Z,100729.96484375
2023-03-29T06:01:27.934Z,100729.625
2023-03-29T06:02:30.383Z,100727.3359375
2023-03-29T06:03:28.559Z,100729.9765625
2023-03-29T06:04:28.032Z,100726.9296875
2023-03-29T06:05:27.946Z,100726.36328125
2023-03-29T06:06:28.017Z,100723.296875
2023-03-29T06:07:27.944Z,100727.73046875
2023-03-29T06:08:28.376Z,100724.6015625
2023-03-29T06:09:27.951Z,100725.375
2023-03-29T06:10:28.371Z,100725.953125
2023-03-29T06:11:27.911Z,100729.59375
2023-03-29T06:12:27.946Z,100727.84375
2023-03-29T06:13:32.775Z,100725.98828125
2023-03-29T06:14:27.968Z,100722.6328125
2023-03-29T06:15:28.019Z,100718.2890625
2023-03-29T06:16:28.111Z,100719.78125
2023-03-29T06:17:27.983Z,100718.828125
2023-03-29T06:18:28.362Z,100719.015625
2023-03-29T06:19:27.948Z,100714.62109375
2023-03-29T06:20:27.941Z,100717.7578125
2023-03-29T06:21:28.083Z,100717.17578125
2023-03-29T06:22:27.943Z,100718.36328125
2023-03-29T06:23:28.337Z,100716.08984375
2023-03-29T06:24:30.402Z,100719.03125
2023-03-29T06:25:28.379Z,100715.6484375
2023-03-29T06:26:27.923Z,100719.671875
2023-03-29T06:27:27.946Z,100724.63671875
2023-03-29T06:28:28.353Z,100724.96875
2023-03-29T06:29:27.961Z,100723.66015625
2023-03-29T06:30:27.969Z,100722.7890625
2023-03-29T06:31:27.976Z,100723.22265625
2023-03-29T06:32:27.998Z,100720.33203125
2023-03-29T06:33:28.345Z,100722.23828125
2023-03-29T06:34:28.023Z,100723.375
2023-03-29T06:35:30.332Z,100723.22265625
2023-03-29T06:36:27.936Z,100727.1484375
2023-03-29T06:37:27.951Z,100725.7265625
2023-03-29T06:38:28.599Z,100729.484375
2023-03-29T06:39:27.961Z,100728.9296875
2023-03-29T06:40:28.359Z,100729.9765625
2023-03-29T06:41:27.908Z,100727.90234375
2023-03-29T06:42:27.929Z,100729.58984375
2023-03-29T06:43:28.367Z,100730.0546875
2023-03-29T06:44:27.945Z,100727.73828125
2023-03-29T06:45:29.324Z,100729.13671875
2023-03-29T06:46:30.306Z,100726.05078125
2023-03-29T06:47:28.016Z,100729.3984375
2023-03-29T06:48:28.352Z,100727
2023-03-29T06:49:28.001Z,100727.109375
2023-03-29T06:50:28.065Z,100726.95703125
2023-03-29T06:51:27.935Z,100727.75390625
2023-03-29T06:52:27.952Z,100727.29296875
2023-03-29T06:53:28.348Z,100729.0390625
2023-03-29T06:54:27.952Z,100734.25390625
2023-03-29T06:55:28.366Z,100733.70703125
2023-03-29T06:56:27.979Z,100731.63671875
2023-03-29T06:57:30.441Z,100729.75390625
2023-03-29T06:58:28.374Z,100733.25
2023-03-29T06:59:27.991Z,100734.6953125
2023-03-29T07:00:28.223Z,100732.0703125
2023-03-29T07:01:28.143Z,100727.78515625
2023-03-29T07:02:27.984Z,100729.67578125
2023-03-29T07:03:28.346Z,100729.12890625
2023-03-29T07:04:27.945Z,100733.453125
2023-03-29T07:05:27.968Z,100734.85546875
2023-03-29T07:06:27.948Z,100734.2734375
2023-03-29T07:07:28.054Z,100734.99609375
2023-03-29T07:08:32.825Z,100733.03125
2023-03-29T07:09:28.377Z,100731.41015625
2023-03-29T07:10:28.344Z,100736.1015625
2023-03-29T07:11:27.902Z,100733.30078125
2023-03-29T07:12:27.969Z,100726.796875
2023-03-29T07:13:28.088Z,100728.61328125
2023-03-29T07:14:28.055Z,100729.12890625
2023-03-29T07:15:27.965Z,100728.34375
2023-03-29T07:16:28.408Z,100729.5546875
2023-03-29T07:17:27.963Z,100728.79296875
2023-03-29T07:18:27.952Z,100726.19140625
2023-03-29T07:19:32.920Z,100731
2023-03-29T07:20:27.942Z,100733.5625
2023-03-29T07:21:27.960Z,100730.0234375
2023-03-29T07:22:28.077Z,100734.15234375
2023-03-29T07:23:28.056Z,100740.56640625
2023-03-29T07:24:27.973Z,100734.36328125
2023-03-29T07:25:27.945Z,100732.75
2023-03-29T07:26:29.029Z,100734.14453125
2023-03-29T07:27:27.949Z,100738.734375
2023-03-29T07:28:27.948Z,100739.22265625
2023-03-29T07:29:28.351Z,100741.9453125
2023-03-29T07:30:32.042Z,100742.25
2023-03-29T07:31:28.371Z,100743.73046875
2023-03-29T07:32:28.029Z,100743.2109375
2023-03-29T07:33:27.995Z,100743.015625
2023-03-29T07:34:28.059Z,100748.69140625
2023-03-29T07:35:27.966Z,100745.8203125
2023-03-29T07:36:27.928Z,100746.76953125
2023-03-29T07:37:28.085Z,100750.80859375
2023-03-29T07:38:27.929Z,100745.33203125
2023-03-29T07:39:28.075Z,100746.9765625
2023-03-29T07:40:27.927Z,100750.6640625
2023-03-29T07:41:30.243Z,100744.24609375
2023-03-29T07:42:27.930Z,100746.7578125
2023-03-29T07:43:27.929Z,100754.9453125
2023-03-29T07:44:28.350Z,100749.49609375
2023-03-29T07:45:28.252Z,100753.09765625
2023-03-29T07:46:28.378Z,100753.31640625
2023-03-29T07:47:28.135Z,100754.98046875
2023-03-29T07:48:27.934Z,100753.20703125
2023-03-29T07:49:28.346Z,100751.94140625
2023-03-29T07:50:27.952Z,100750.42578125
2023-03-29T07:51:27.933Z,100755.08203125
2023-03-29T07:52:30.292Z,100753.328125
2023-03-29T07:53:28.077Z,100751.4375
2023-03-29T07:54:28.352Z,100752.67578125
2023-03-29T07:55:28.057Z,100752.921875
2023-03-29T07:56:28.026Z,100752.109375
2023-03-29T07:57:27.990Z,100755.83203125
2023-03-29T07:58:27.945Z,100748.50390625
2023-03-29T07:59:28.340Z,100752.96875
2023-03-29T08:00:27.962Z,100759.65234375
2023-03-29T08:01:28.403Z,100758.5078125
2023-03-29T08:02:27.955Z,100756.359375
2023-03-29T08:03:30.347Z,100758.390625
2023-03-29T08:04:28.519Z,100757.609375
2023-03-29T08:05:40.038Z,100757.4375
2023-03-29T08:06:27.940Z,100754.65234375
2023-03-29T08:07:27.952Z,100758.66015625
2023-03-29T08:08:27.933Z,100754.984375
2023-03-29T08:09:28.371Z,100759.83203125
2023-03-29T08:10:27.945Z,100758.24609375
2023-03-29T08:11:27.925Z,100760.4453125
2023-03-29T08:12:27.947Z,100761.89453125
2023-03-29T08:13:27.945Z,100759.296875
2023-03-29T08:14:32.746Z,100761.8671875
2023-03-29T08:15:28.132Z,100762.87109375
2023-03-29T08:16:28.356Z,100760.53125
2023-03-29T08:17:27.974Z,100762.3671875
2023-03-29T08:18:27.991Z,100760.65234375
2023-03-29T08:19:28.345Z,100758.4609375
2023-03-29T08:20:28.096Z,100757.5078125
2023-03-29T08:21:27.963Z,100751.96484375
2023-03-29T08:22:27.947Z,100750.44140625
2023-03-29T08:23:27.955Z,100746.41796875
2023-03-29T08:24:27.959Z,100747.42578125
2023-03-29T08:25:30.678Z,100747.90625
2023-03-29T08:26:27.956Z,100750.73828125
2023-03-29T08:27:27.940Z,100749.03125
2023-03-29T08:28:27.962Z,100751.72265625
2023-03-29T08:29:27.942Z,100747.11328125
2023-03-29T08:30:28.348Z,100743.46875
2023-03-29T08:31:28.426Z,100744.625
2023-03-29T08:32:27.989Z,100743.07421875
2023-03-29T08:33:27.953Z,100732.609375
2023-03-29T08:34:27.953Z,100732.57421875
2023-03-29T08:35:28.349Z,100734.0390625
2023-03-29T08:36:30.365Z,100726.9296875
2023-03-29T08:37:27.929Z,100728.58203125
2023-03-29T08:38:27.962Z,100728.01953125
2023-03-29T08:39:27.932Z,100726.23046875
2023-03-29T08:40:28.341Z,100730.76171875
2023-03-29T08:41:27.901Z,100727.84765625
2023-03-29T08:42:28.036Z,100725.27734375
2023-03-29T08:43:28.073Z,100724.2421875
2023-03-29T08:44:27.931Z,100719.96484375
2023-03-29T08:45:28.356Z,100725.546875
2023-03-29T08:46:34.476Z,100727.9140625
2023-03-29T08:47:30.354Z,100730.71484375
2023-03-29T08:48:27.940Z,100729.5625
2023-03-29T08:49:27.983Z,100727.30859375
2023-03-29T08:50:31.889Z,100726.1171875
2023-03-29T08:51:27.985Z,100726.04296875
2023-03-29T08:52:28.083Z,100730.91796875
2023-03-29T08:53:27.934Z,100727.23828125
2023-03-29T08:54:28.022Z,100733.0703125
2023-03-29T08:55:28.034Z,100730.15234375
2023-03-29T08:56:28.061Z,100726.66015625
2023-03-29T08:57:27.985Z,100723.9921875
2023-03-29T08:58:30.335Z,100724.01171875
2023-03-29T08:59:27.951Z,100727.046875
2023-03-29T09:00:27.934Z,100723.375
2023-03-29T09:01:28.151Z,100727.27734375
2023-03-29T09:02:28.157Z,100725.74609375
2023-03-29T09:03:28.171Z,100727.0078125
2023-03-29T09:04:27.950Z,100723.50390625
2023-03-29T09:05:27.925Z,100719.93359375
2023-03-29T09:06:28.047Z,100721.6015625
2023-03-29T09:07:28.067Z,100718.64453125
2023-03-29T09:08:27.946Z,100720.6640625
2023-03-29T09:09:30.368Z,100722.70703125
2023-03-29T09:10:27.943Z,100727.203125
2023-03-29T09:11:27.952Z,100732.12109375
2023-03-29T09:12:27.954Z,100734.7578125
2023-03-29T09:13:28.111Z,100738.16015625
2023-03-29T09:14:27.916Z,100739.83203125
2023-03-29T09:15:27.952Z,100739.78515625
2023-03-29T09:16:28.089Z,100733.921875
2023-03-29T09:17:27.968Z,100738.171875
2023-03-29T09:18:27.930Z,100735.7421875
2023-03-29T09:19:27.948Z,100739.80859375
2023-03-29T09:20:30.289Z,100740.390625
2023-03-29T09:21:28.090Z,100739.74609375
2023-03-29T09:22:27.945Z,100740.98046875
2023-03-29T09:23:27.987Z,100738.86328125
2023-03-29T09:24:27.945Z,100736.8203125
2023-03-29T09:25:27.923Z,100733.15625
2023-03-29T09:26:29.146Z,100735.37890625
2023-03-29T09:27:27.979Z,100731.57421875
2023-03-29T09:28:27.955Z,100730.34765625
2023-03-29T09:29:27.945Z,100728.2890625
2023-03-29T09:30:27.956Z,100728.265625
2023-03-29T09:31:32.880Z,100728.203125
2023-03-29T09:32:27.980Z,100730.9453125
2023-03-29T09:33:27.949Z,100732.55859375
2023-03-29T09:34:27.911Z,100730.66015625
2023-03-29T09:35:27.942Z,100734.64453125
2023-03-29T09:36:28.361Z,100732.1953125
2023-03-29T09:37:27.946Z,100731.7578125
2023-03-29T09:38:27.965Z,100734.453125
2023-03-29T09:39:28.010Z,100728.89453125
2023-03-29T09:40:28.347Z,100725.1796875
2023-03-29T09:41:28.339Z,100719.08203125
2023-03-29T09:42:30.270Z,100717.03515625
2023-03-29T09:43:28.057Z,100715.8203125
2023-03-29T09:44:31.142Z,100717.80859375
2023-03-29T09:45:27.968Z,100714.22265625
2023-03-29T09:46:28.339Z,100718.05859375
2023-03-29T09:47:28.080Z,100709.9375
2023-03-29T09:48:27.924Z,100710.60546875
2023-03-29T09:49:27.945Z,100705.95703125
2023-03-29T09:50:31.667Z,100708.7109375
2023-03-29T09:51:28.365Z,100706.1640625
2023-03-29T09:52:27.931Z,100705.296875
2023-03-29T09:53:30.307Z,100707.1640625
2023-03-29T09:54:27.947Z,100709.484375
2023-03-29T09:55:28.367Z,100708.30859375
2023-03-29T09:56:28.350Z,100710.10546875
2023-03-29T09:57:27.979Z,100710.2578125